Time;durP1;ratioP1;P1;durP2;ratioP2;P2;SDS_P1;SDS_P2;PMS_P1;PMS_P2;Temp;Humidity;BMP_temperature;BMP_pressure;BME280_temperature;BME280_humidity;BME280_pressure;Samples;Min_cycle;Max_cycle;Signal;HPM_P1;HPM_P2
2022/03/08 05:22:33;;;;;;;10.32;6.55;;;;;;;-1.62;57.26;100851.97;5129622;27;20600;-70
2022/03/08 05:24:59;;;;;;;11.38;6.90;;;;;;;-1.58;57.22;100847.41;5111461;28;20043;-70
2022/03/08 05:27:25;;;;;;;10.30;6.63;;;;;;;-1.60;57.17;100841.44;5130806;28;20042;-70
2022/03/08 05:29:50;;;;;;;9.82;7.13;;;;;;;-1.57;56.97;100844.72;5111512;28;20449;-70
2022/03/08 05:32:16;;;;;;;12.77;7.10;;;;;;;-1.63;57.71;100834.63;5129452;28;20032;-69
2022/03/08 05:34:42;;;;;;;11.88;7.15;;;;;;;-1.64;57.49;100830.28;5127379;22;20412;-70
2022/03/08 05:37:08;;;;;;;10.02;7.10;;;;;;;-1.62;58.18;100843.31;5109182;28;20164;-70
2022/03/08 05:39:33;;;;;;;12.73;7.15;;;;;;;-1.61;58.26;100840.59;5109089;28;20118;-72
2022/03/08 05:41:59;;;;;;;13.95;7.25;;;;;;;-1.60;58.98;100842.28;5108714;28;20512;-71
2022/03/08 05:44:25;;;;;;;10.60;7.05;;;;;;;-1.63;57.66;100847.69;5108965;28;20036;-72
2022/03/08 05:46:50;;;;;;;12.30;7.53;;;;;;;-1.62;58.45;100838.91;5108792;28;20039;-70
2022/03/08 05:49:17;;;;;;;11.13;7.30;;;;;;;-1.62;57.80;100844.16;5108764;28;20048;-70
2022/03/08 05:51:43;;;;;;;10.20;6.32;;;;;;;-1.63;58.56;100842.47;5108383;28;20036;-70
2022/03/08 05:54:09;;;;;;;10.45;6.47;;;;;;;-1.68;57.56;100849.69;5108710;28;20576;-70
2022/03/08 05:56:35;;;;;;;10.35;7.22;;;;;;;-1.67;58.74;100847.00;5108722;28;20592;-70
2022/03/08 05:59:01;;;;;;;12.27;7.75;;;;;;;-1.62;58.42;100851.97;5108774;28;20047;-70
2022/03/08 06:01:26;;;;;;;10.73;7.32;;;;;;;-1.59;57.73;100857.03;5108456;28;20488;-70
2022/03/08 06:03:52;;;;;;;10.60;7.20;;;;;;;-1.59;57.72;100845.72;5108456;28;20378;-70
2022/03/08 06:06:17;;;;;;;10.23;6.70;;;;;;;-1.52;57.44;100862.78;5107366;28;20036;-70
2022/03/08 06:08:43;;;;;;;9.13;6.95;;;;;;;-1.51;57.03;100862.69;5108820;28;20032;-70
2022/03/08 06:11:09;;;;;;;10.35;6.50;;;;;;;-1.50;56.75;100855.69;5107823;28;20058;-71
2022/03/08 06:13:34;;;;;;;9.60;5.93;;;;;;;-1.51;56.74;100856.63;5107031;28;20488;-70
2022/03/08 06:16:00;;;;;;;10.38;6.90;;;;;;;-1.48;56.88;100856.47;5108566;28;20055;-71
2022/03/08 06:18:26;;;;;;;9.70;6.43;;;;;;;-1.47;57.51;100860.78;5108579;28;20043;-71
2022/03/08 06:20:51;;;;;;;12.05;7.18;;;;;;;-1.43;57.22;100860.53;5108370;28;20024;-71
2022/03/08 06:23:17;;;;;;;8.95;6.55;;;;;;;-1.40;57.05;100869.97;5107981;28;20036;-71
2022/03/08 06:25:43;;;;;;;10.57;6.43;;;;;;;-1.36;56.80;100871.50;5108352;28;20036;-71
2022/03/08 06:28:08;;;;;;;9.05;6.65;;;;;;;-1.31;56.71;100864.22;5108263;28;20046;-70
2022/03/08 06:30:34;;;;;;;9.18;7.22;;;;;;;-1.26;57.08;100871.84;5106671;28;20082;-71
2022/03/08 06:33:00;;;;;;;11.60;7.05;;;;;;;-1.17;56.01;100869.59;5099226;28;20064;-71
2022/03/08 06:35:26;;;;;;;9.25;6.60;;;;;;;-1.03;56.20;100865.38;5094394;28;20054;-71
2022/03/08 06:37:51;;;;;;;10.15;6.20;;;;;;;-1.01;55.95;100873.97;5093155;28;20396;-70
2022/03/08 06:40:18;;;;;;;11.23;7.20;;;;;;;-0.92;55.74;100876.91;5094520;28;20043;-71
2022/03/08 06:42:43;;;;;;;12.93;7.00;;;;;;;-0.81;55.05;100876.31;5094101;28;20031;-71
2022/03/08 06:45:10;;;;;;;10.85;6.63;;;;;;;-0.75;54.97;100876.00;5094454;28;20036;-71
2022/03/08 06:47:38;;;;;;;9.98;6.60;;;;;;;-0.62;54.98;100874.38;5094430;28;20039;-71
2022/03/08 06:50:05;;;;;;;10.35;6.97;;;;;;;-0.53;55.14;100877.38;5093282;28;20403;-70
2022/03/08 06:52:30;;;;;;;10.63;6.75;;;;;;;-0.50;54.33;100888.53;5093924;28;20086;-70
2022/03/08 06:54:56;;;;;;;12.23;7.68;;;;;;;-0.40;53.98;100879.22;5094226;28;20024;-71
2022/03/08 06:57:22;;;;;;;11.15;7.10;;;;;;;-0.27;53.88;100884.59;5094074;28;20081;-71
2022/03/08 06:59:47;;;;;;;11.70;7.20;;;;;;;-0.27;54.05;100879.34;5094589;28;20047;-72
2022/03/08 07:02:13;;;;;;;9.25;6.25;;;;;;;-0.12;53.51;100885.50;5093834;28;20024;-71
2022/03/08 07:04:39;;;;;;;9.88;7.00;;;;;;;-0.03;53.64;100883.16;5092523;28;20044;-71
2022/03/08 07:07:04;;;;;;;10.82;7.13;;;;;;;0.12;52.39;100891.06;5093989;28;20044;-71
2022/03/08 07:09:30;;;;;;;10.35;7.18;;;;;;;0.17;52.49;100884.63;5093769;28;20032;-71
2022/03/08 07:11:56;;;;;;;10.02;6.70;;;;;;;0.37;52.02;100891.28;5092312;28;20047;-71
2022/03/08 07:14:22;;;;;;;11.32;7.75;;;;;;;0.47;52.33;100891.59;5093638;28;20060;-71
2022/03/08 07:16:48;;;;;;;9.35;6.65;;;;;;;0.48;52.24;100894.09;5093631;28;20404;-71
2022/03/08 07:19:14;;;;;;;11.30;7.10;;;;;;;0.68;51.42;100892.88;5093832;28;20075;-71
2022/03/08 07:21:40;;;;;;;9.75;7.47;;;;;;;0.61;50.44;100888.13;5093601;28;20493;-70
2022/03/08 07:24:07;;;;;;;9.75;7.03;;;;;;;0.74;51.49;100892.50;5093631;28;20036;-70
2022/03/08 07:26:32;;;;;;;9.18;6.60;;;;;;;1.06;51.21;100895.75;5093601;28;20058;-71
2022/03/08 07:28:58;;;;;;;10.27;6.68;;;;;;;1.33;50.11;100893.16;5092111;28;20032;-70
2022/03/08 07:31:24;;;;;;;9.50;6.72;;;;;;;1.30;48.94;100889.88;5093246;28;20044;-70
2022/03/08 07:33:49;;;;;;;10.95;6.80;;;;;;;1.38;49.14;100886.78;5091717;28;20127;-71
2022/03/08 07:36:15;;;;;;;9.18;6.13;;;;;;;1.49;47.97;100884.28;5093382;28;20070;-72
2022/03/08 07:38:41;;;;;;;8.48;6.15;;;;;;;1.62;47.09;100869.41;5092109;28;20043;-70
2022/03/08 07:41:06;;;;;;;11.40;6.68;;;;;;;1.88;46.66;100886.06;5093423;28;20058;-71
2022/03/08 07:43:34;;;;;;;9.90;6.43;;;;;;;2.03;46.69;100886.84;5092586;28;20032;-71
2022/03/08 07:46:01;;;;;;;9.38;6.25;;;;;;;2.18;46.17;100881.41;5092611;28;20081;-71
2022/03/08 07:48:26;;;;;;;11.52;6.88;;;;;;;2.33;44.98;100882.13;5093244;28;20064;-71
2022/03/08 07:50:52;;;;;;;7.72;5.53;;;;;;;2.35;44.95;100882.88;5093147;28;20078;-71
2022/03/08 07:53:18;;;;;;;9.40;5.85;;;;;;;2.45;46.06;100883.09;5091687;28;20574;-71
2022/03/08 07:55:43;;;;;;;7.78;5.43;;;;;;;2.43;45.09;100879.72;5093408;28;20016;-72
2022/03/08 07:58:13;;;;;;;8.50;6.15;;;;;;;2.66;44.54;100881.59;5093567;28;20028;-71
2022/03/08 08:00:40;;;;;;;9.60;6.07;;;;;;;2.81;44.25;100890.22;5093310;28;20118;-71
2022/03/08 08:03:07;;;;;;;9.90;6.13;;;;;;;2.88;43.85;100891.47;5093076;28;20063;-71
2022/03/08 08:05:36;;;;;;;8.20;5.75;;;;;;;3.03;44.76;100894.78;5093612;28;20737;-71
2022/03/08 08:08:04;;;;;;;8.40;5.68;;;;;;;3.27;43.56;100894.84;5092131;28;20493;-71
2022/03/08 08:10:30;;;;;;;8.25;5.88;;;;;;;3.11;43.81;100883.72;5091899;28;20451;-71
2022/03/08 08:12:56;;;;;;;8.10;6.00;;;;;;;3.29;43.76;100879.75;5092782;28;20040;-72
2022/03/08 08:15:22;;;;;;;8.23;5.68;;;;;;;3.41;43.03;100878.88;5092904;28;20039;-71
2022/03/08 08:17:48;;;;;;;6.93;5.38;;;;;;;3.61;42.61;100873.94;5092859;28;20165;-70
2022/03/08 08:20:17;;;;;;;9.07;6.18;;;;;;;3.57;42.65;100877.75;5075264;28;20400;-69
2022/03/08 08:22:44;;;;;;;5.80;4.85;;;;;;;3.65;42.10;100872.75;5092383;28;20040;-70
2022/03/08 08:25:10;;;;;;;9.82;5.88;;;;;;;3.91;42.71;100874.31;5092915;28;20031;-70
2022/03/08 08:27:37;;;;;;;8.52;5.90;;;;;;;4.00;42.20;100865.69;5091357;28;20038;-69
2022/03/08 08:30:09;;;;;;;8.55;6.03;;;;;;;3.99;42.13;100869.28;5092350;28;20468;-69
2022/03/08 08:32:34;;;;;;;7.53;5.47;;;;;;;4.14;41.79;100867.28;5092013;28;20473;-70
2022/03/08 08:35:00;;;;;;;9.63;5.65;;;;;;;4.22;41.99;100870.16;5092282;28;20072;-69
2022/03/08 08:37:26;;;;;;;9.02;6.10;;;;;;;4.42;42.70;100866.00;5092298;28;20115;-69
2022/03/08 08:39:52;;;;;;;8.90;5.88;;;;;;;4.51;41.40;100864.47;5090929;28;20036;-69
2022/03/08 08:42:18;;;;;;;9.35;5.97;;;;;;;4.77;41.48;100854.50;5091680;28;20085;-71
2022/03/08 08:44:44;;;;;;;6.40;5.35;;;;;;;4.93;40.82;100849.66;5090778;28;20043;-71
2022/03/08 08:47:10;;;;;;;7.90;5.45;;;;;;;5.23;40.81;100846.38;5092140;28;20056;-71
2022/03/08 08:49:35;;;;;;;7.30;5.38;;;;;;;5.33;39.65;100847.28;5092060;28;20032;-71
2022/03/08 08:52:01;;;;;;;9.00;5.80;;;;;;;5.65;39.25;100846.47;5091627;28;20123;-70
2022/03/08 08:54:27;;;;;;;7.38;5.35;;;;;;;5.62;38.93;100858.13;5091998;28;20111;-68
2022/03/08 08:56:52;;;;;;;8.30;5.00;;;;;;;5.42;39.63;100840.44;5091752;28;20047;-70
2022/03/08 08:59:18;;;;;;;7.07;4.93;;;;;;;5.54;39.24;100843.84;5092045;28;20445;-70
2022/03/08 09:01:44;;;;;;;8.70;5.38;;;;;;;5.67;39.63;100845.38;5090352;28;20036;-71
2022/03/08 09:04:10;;;;;;;7.22;5.30;;;;;;;5.94;38.80;100849.38;5091973;28;20096;-70
2022/03/08 09:06:36;;;;;;;7.07;4.55;;;;;;;6.02;38.56;100844.28;5091854;28;20544;-72
2022/03/08 09:09:02;;;;;;;5.68;4.88;;;;;;;6.12;38.44;100850.44;5091788;28;20071;-70
2022/03/08 09:11:28;;;;;;;7.63;5.28;;;;;;;6.10;38.48;100841.81;5091547;28;20024;-71
2022/03/08 09:13:56;;;;;;;7.00;5.43;;;;;;;6.28;38.15;100846.50;5091468;28;20036;-67
2022/03/08 09:16:22;;;;;;;5.32;4.80;;;;;;;6.24;38.23;100849.41;5091638;28;20044;-70
2022/03/08 09:18:48;;;;;;;5.50;4.63;;;;;;;6.47;37.86;100839.50;5092133;28;20035;-70
2022/03/08 09:21:14;;;;;;;7.88;5.65;;;;;;;6.54;37.42;100850.41;5091744;28;20496;-69
2022/03/08 09:23:40;;;;;;;11.65;5.55;;;;;;;6.66;37.19;100841.41;5090175;28;20492;-69
2022/03/08 09:26:06;;;;;;;8.93;5.10;;;;;;;6.65;37.08;100839.72;5090275;28;20036;-68
2022/03/08 09:28:32;;;;;;;6.18;5.10;;;;;;;6.59;37.16;100837.63;5090265;28;20043;-69
2022/03/08 09:31:01;;;;;;;5.95;4.93;;;;;;;6.57;37.50;100844.81;5091535;28;20508;-71
2022/03/08 09:33:27;;;;;;;7.53;5.30;;;;;;;6.44;37.75;100834.47;5091069;28;20400;-69
2022/03/08 09:35:53;;;;;;;6.32;4.80;;;;;;;6.69;37.15;100840.28;5091470;28;20047;-70
2022/03/08 09:38:19;;;;;;;6.68;5.40;;;;;;;6.98;36.64;100837.75;5091483;28;20047;-69
2022/03/08 09:40:47;;;;;;;5.88;5.05;;;;;;;7.05;36.33;100822.97;5091448;28;20427;-69
2022/03/08 09:43:13;;;;;;;;;;;;;;;7.47;35.95;100820.91;5091532;28;20040;-68
2022/03/08 09:45:39;;;;;;;5.97;4.85;;;;;;;7.29;36.04;100814.63;5091378;28;20002;-68
2022/03/08 09:48:05;;;;;;;6.82;5.38;;;;;;;7.21;36.20;100812.66;5090141;28;20116;-71
2022/03/08 09:50:30;;;;;;;5.68;4.90;;;;;;;7.62;36.00;100806.25;5089999;28;20062;-71
2022/03/08 09:52:57;;;;;;;6.63;5.40;;;;;;;7.98;35.43;100810.97;5091017;28;20061;-71
2022/03/08 09:55:25;;;;;;;6.25;5.00;;;;;;;8.29;34.84;100815.09;5073185;28;20053;-69
2022/03/08 09:57:52;;;;;;;6.35;4.97;;;;;;;8.14;34.76;100812.03;5091078;28;20032;-71
2022/03/08 10:00:18;;;;;;;6.38;5.43;;;;;;;8.64;33.91;100803.78;5089872;28;20362;-71
2022/03/08 10:02:48;;;;;;;9.30;5.28;;;;;;;8.73;33.31;100806.53;5089459;28;20043;-70
2022/03/08 10:05:20;;;;;;;6.32;5.00;;;;;;;8.80;32.71;100811.13;5091198;28;20039;-71
2022/03/08 10:08:14;;;;;;;9.00;5.55;;;;;;;9.18;32.96;100814.53;5091155;28;20404;-70
2022/03/08 10:10:44;;;;;;;5.78;5.10;;;;;;;9.86;32.20;100806.00;5094976;28;20383;-70
2022/03/08 10:13:11;;;;;;;6.43;4.88;;;;;;;10.31;30.55;100812.00;5094655;28;20036;-70
2022/03/08 10:15:37;;;;;;;7.32;5.40;;;;;;;10.45;30.53;100801.75;5094680;28;20059;-71
2022/03/08 10:18:04;;;;;;;7.63;4.85;;;;;;;10.80;30.21;100798.06;5094840;28;20510;-71
2022/03/08 10:20:32;;;;;;;8.15;4.97;;;;;;;10.89;30.14;100786.44;5094741;28;20035;-70
2022/03/08 10:22:59;;;;;;;8.32;5.10;;;;;;;10.94;29.35;100794.75;5094402;28;20080;-70
2022/03/08 10:25:28;;;;;;;5.57;4.70;;;;;;;10.98;29.29;100782.78;5094672;28;20032;-71
2022/03/08 10:27:54;;;;;;;5.95;4.65;;;;;;;11.54;28.46;100786.56;5094615;28;20080;-70
2022/03/08 10:30:43;;;;;;;5.13;4.55;;;;;;;11.50;27.91;100768.38;5094515;28;20028;-69
2022/03/08 10:33:09;;;;;;;4.93;4.35;;;;;;;11.62;27.83;100770.53;5094463;28;20532;-69
2022/03/08 10:35:41;;;;;;;5.65;4.55;;;;;;;11.72;27.56;100778.34;5093231;28;20400;-69
2022/03/08 10:38:09;;;;;;;4.97;4.47;;;;;;;11.98;27.14;100772.84;5093245;28;20481;-68
2022/03/08 10:40:35;;;;;;;;;;;;;;;12.49;27.08;100773.38;5094829;28;20032;-69
2022/03/08 10:43:08;;;;;;;4.70;4.00;;;;;;;13.05;25.96;100768.78;5094106;28;20320;-69
2022/03/08 10:45:39;;;;;;;6.57;4.45;;;;;;;12.62;25.95;100767.50;5094349;28;20039;-69
2022/03/08 10:48:07;;;;;;;7.38;4.57;;;;;;;12.85;26.06;100773.75;5094370;28;20036;-69
2022/03/08 10:50:35;;;;;;;7.22;4.78;;;;;;;12.54;25.85;100772.88;5093043;28;20024;-69
2022/03/08 10:53:03;;;;;;;5.75;4.18;;;;;;;12.69;26.18;100769.28;5093905;28;20111;-69
2022/03/08 10:55:28;;;;;;;;;;;;;;;12.27;26.27;100763.47;5093076;28;20131;-69
2022/03/08 10:57:59;;;;;;;6.43;4.70;;;;;;;13.95;25.01;100757.34;5093939;28;19912;-70
2022/03/08 11:00:27;;;;;;;5.97;4.70;;;;;;;14.09;24.65;100762.75;5093939;28;20482;-70
2022/03/08 11:02:55;;;;;;;7.43;4.32;;;;;;;13.93;24.44;100754.88;5093536;28;20063;-69
2022/03/08 11:05:23;;;;;;;7.05;4.53;;;;;;;13.96;24.32;100756.38;5092629;28;20036;-69
2022/03/08 11:07:49;;;;;;;6.60;5.35;;;;;;;14.00;24.58;100752.28;5093824;28;20076;-70
2022/03/08 11:10:16;;;;;;;5.88;4.72;;;;;;;14.60;23.35;100754.78;5075470;28;20043;-70
2022/03/08 11:12:42;;;;;;;6.60;4.50;;;;;;;14.57;23.68;100744.47;5093470;28;20036;-69
2022/03/08 11:15:10;;;;;;;5.25;4.15;;;;;;;14.80;23.02;100749.69;5093826;28;20127;-69
2022/03/08 11:17:36;;;;;;;;;;;;;;;14.30;23.56;100747.78;5094345;28;20051;-69
2022/03/08 11:20:08;;;;;;;6.30;4.20;;;;;;;15.20;22.36;100758.19;5093665;28;19916;-69
2022/03/08 11:22:34;;;;;;;5.93;4.20;;;;;;;13.79;24.31;100745.81;5092201;28;20527;-69
2022/03/08 11:25:00;;;;;;;5.45;4.35;;;;;;;14.66;23.42;100737.13;5093465;28;20024;-69
2022/03/08 11:27:26;;;;;;;7.03;4.20;;;;;;;14.33;23.46;100740.19;5092672;28;20055;-70
2022/03/08 11:29:52;;;;;;;4.65;4.15;;;;;;;14.50;24.00;100732.81;5093593;28;20031;-71
2022/03/08 11:32:28;;;;;;;5.80;3.95;;;;;;;15.23;22.50;100727.44;5091932;28;20047;-70
2022/03/08 11:35:11;;;;;;;5.25;4.28;;;;;;;15.56;21.96;100730.41;5093722;28;20040;-72
2022/03/08 11:37:51;;;;;;;4.90;4.15;;;;;;;14.61;23.02;100724.31;5093912;28;20028;-74
2022/03/08 11:41:06;;;;;;;5.63;3.78;;;;;;;15.09;21.94;100711.22;5070651;28;20054;-72
2022/03/08 11:43:45;;;;;;;5.60;3.97;;;;;;;15.52;21.89;100715.72;5092617;28;20047;-72
2022/03/08 11:46:18;;;;;;;6.78;3.85;;;;;;;15.39;21.83;100709.22;5093526;28;20464;-72
2022/03/08 11:49:01;;;;;;;6.60;4.20;;;;;;;15.37;22.33;100697.84;5093207;28;20043;-72
2022/03/08 11:51:29;;;;;;;4.53;3.95;;;;;;;16.20;22.34;100701.53;5093071;28;20032;-72
2022/03/08 11:54:05;;;;;;;6.20;3.67;;;;;;;17.17;20.22;100705.00;5092773;28;20446;-71
2022/03/08 11:56:51;;;;;;;4.95;4.15;;;;;;;16.69;20.24;100696.97;5090993;28;20032;-71
2022/03/08 11:59:18;;;;;;;5.00;4.00;;;;;;;17.06;19.73;100699.16;5092952;28;20038;-72
2022/03/08 12:01:44;;;;;;;4.63;3.93;;;;;;;17.42;19.75;100702.53;5092598;28;20513;-72
2022/03/08 12:04:13;;;;;;;3.85;3.47;;;;;;;17.20;20.06;100699.19;5092780;28;20049;-72
2022/03/08 12:06:40;;;;;;;4.55;3.60;;;;;;;17.21;20.47;100690.06;5091332;28;20105;-71
2022/03/08 12:09:13;;;;;;;6.13;3.97;;;;;;;16.94;20.41;100690.03;5091489;28;20174;-71
2022/03/08 12:11:40;;;;;;;5.22;3.90;;;;;;;17.20;19.92;100696.50;5092361;28;20047;-71
2022/03/08 12:14:26;;;;;;;5.15;4.43;;;;;;;17.37;19.81;100678.91;5092457;28;20142;-71
2022/03/08 12:17:06;;;;;;;5.63;4.10;;;;;;;16.87;19.73;100681.13;5092230;28;20047;-70
2022/03/08 12:19:33;;;;;;;3.88;3.47;;;;;;;17.15;20.04;100678.28;5092477;28;20040;-70
2022/03/08 12:21:59;;;;;;;5.07;3.95;;;;;;;16.38;19.94;100686.75;5092170;28;20495;-70
2022/03/08 12:24:26;;;;;;;4.50;4.10;;;;;;;16.58;20.14;100676.88;5092300;28;20465;-72
2022/03/08 12:27:01;;;;;;;4.97;4.32;;;;;;;16.68;20.54;100700.69;5092610;28;20120;-73
2022/03/08 12:29:36;;;;;;;6.22;3.85;;;;;;;17.38;19.45;100680.56;5092368;28;20504;-72
2022/03/08 12:32:03;;;;;;;4.90;3.65;;;;;;;16.50;19.54;100677.91;5091445;28;20055;-71
2022/03/08 12:34:40;;;;;;;5.05;4.35;;;;;;;17.29;19.15;100671.06;5091014;28;20374;-72
2022/03/08 12:37:08;;;;;;;4.43;3.97;;;;;;;16.71;19.79;100679.66;5092226;28;20157;-74
2022/03/08 12:39:58;;;;;;;4.53;3.95;;;;;;;16.62;19.43;100672.75;5092117;28;20028;-73
2022/03/08 12:42:26;;;;;;;5.20;3.58;;;;;;;17.13;18.98;100669.56;5090648;28;20024;-72
2022/03/08 12:45:14;;;;;;;4.22;3.83;;;;;;;16.96;19.37;100663.78;5092054;28;20492;-70
2022/03/08 12:47:49;;;;;;;4.90;3.97;;;;;;;15.75;20.55;100673.38;5091983;28;20050;-71
2022/03/08 12:50:24;;;;;;;5.63;3.78;;;;;;;16.51;19.53;100654.53;5092078;28;20035;-71
2022/03/08 12:52:52;;;;;;;6.43;3.60;;;;;;;16.86;19.40;100665.19;5091660;28;20036;-70
2022/03/08 12:55:24;;;;;;;4.82;3.97;;;;;;;15.88;20.10;100662.72;5073748;28;20092;-71
2022/03/08 12:57:55;;;;;;;4.88;3.42;;;;;;;16.53;19.49;100661.34;5091858;28;20429;-71
2022/03/08 13:00:43;;;;;;;6.85;4.07;;;;;;;16.89;19.04;100667.47;5091784;28;20043;-71
2022/03/08 13:03:13;;;;;;;4.47;3.72;;;;;;;16.92;19.32;100659.00;5091413;28;20546;-70
2022/03/08 13:05:42;;;;;;;4.00;3.28;;;;;;;16.79;19.16;100655.25;5091682;28;20103;-70
2022/03/08 13:08:12;;;;;;;5.30;3.85;;;;;;;16.22;19.25;100659.16;5091665;28;20085;-72
2022/03/08 13:10:43;;;;;;;5.30;3.55;;;;;;;17.05;18.75;100665.22;5091468;28;20044;-70
2022/03/08 13:13:09;;;;;;;5.60;3.70;;;;;;;16.22;18.93;100658.34;5091151;28;20484;-70
2022/03/08 13:15:36;;;;;;;4.18;3.50;;;;;;;16.88;18.60;100653.19;5090304;28;20039;-71
2022/03/08 13:18:03;;;;;;;4.13;3.60;;;;;;;17.42;18.02;100644.13;5091573;28;20059;-70
2022/03/08 13:20:36;;;;;;;4.80;3.30;;;;;;;17.27;17.97;100651.56;5092064;28;20119;-72
2022/03/08 13:23:08;;;;;;;4.88;3.33;;;;;;;17.28;18.03;100650.56;5091225;28;20043;-72
2022/03/08 13:25:36;;;;;;;4.75;3.75;;;;;;;16.91;18.42;100650.09;5091558;28;20032;-72
2022/03/08 13:28:07;;;;;;;4.25;3.60;;;;;;;17.16;17.88;100647.66;5091419;28;20126;-72
2022/03/08 13:30:36;;;;;;;4.97;3.45;;;;;;;17.22;18.56;100643.31;5091393;28;20531;-72
2022/03/08 13:33:22;;;;;;;4.32;3.50;;;;;;;17.33;17.63;100635.41;5091172;28;20043;-72
2022/03/08 13:35:52;;;;;;;4.28;3.17;;;;;;;17.05;17.72;100650.94;5091505;28;20039;-72
2022/03/08 13:38:25;;;;;;;3.90;3.22;;;;;;;16.84;17.71;100645.75;5091444;28;20489;-72
2022/03/08 13:40:52;;;;;;;5.95;3.47;;;;;;;16.59;17.90;100646.28;5091623;28;20040;-73
2022/03/08 13:43:18;;;;;;;4.32;3.55;;;;;;;16.87;17.85;100642.63;5092491;28;20066;-72
2022/03/08 13:45:45;;;;;;;4.17;3.70;;;;;;;16.25;18.22;100652.56;5095274;28;20028;-73
2022/03/08 13:48:14;;;;;;;4.20;3.40;;;;;;;15.85;18.79;100648.88;5095221;28;20047;-72
2022/03/08 13:50:40;;;;;;;4.72;3.28;;;;;;;15.94;18.83;100644.97;5095043;28;20235;-70
2022/03/08 13:53:09;;;;;;;4.10;3.53;;;;;;;15.18;19.20;100644.81;5094794;28;20040;-71
2022/03/08 13:55:35;;;;;;;5.63;3.42;;;;;;;15.32;19.52;100645.75;5110975;28;20454;-71
2022/03/08 13:58:16;;;;;;;4.60;3.33;;;;;;;14.97;19.57;100642.16;5095202;28;20032;-70
2022/03/08 14:00:43;;;;;;;4.70;3.70;;;;;;;14.86;20.14;100651.53;5095028;28;20042;-71
2022/03/08 14:03:10;;;;;;;4.30;3.30;;;;;;;14.40;20.03;100647.31;5094971;28;20043;-71
2022/03/08 14:05:57;;;;;;;5.07;3.13;;;;;;;14.15;20.19;100639.78;5095708;28;20040;-71
2022/03/08 14:08:29;;;;;;;4.18;3.10;;;;;;;13.54;20.70;100661.38;5095237;28;20074;-70
2022/03/08 14:11:07;;;;;;;5.03;3.13;;;;;;;13.67;20.08;100658.09;5094902;28;20512;-70
2022/03/08 14:13:35;;;;;;;6.10;3.17;;;;;;;13.45;21.01;100655.28;5094682;28;20036;-71
2022/03/08 14:16:04;;;;;;;4.22;3.00;;;;;;;13.37;21.37;100654.56;5094763;28;20400;-71
2022/03/08 14:18:31;;;;;;;5.50;3.53;;;;;;;12.87;21.67;100654.06;5094984;28;20032;-71
2022/03/08 14:20:57;;;;;;;5.60;3.45;;;;;;;12.95;21.85;100647.84;5094658;28;20040;-70
2022/03/08 14:23:24;;;;;;;4.43;3.60;;;;;;;12.74;21.84;100646.66;5094521;28;20043;-70
2022/03/08 14:25:57;;;;;;;5.80;3.42;;;;;;;12.65;22.11;100647.72;5094734;28;20119;-71
2022/03/08 14:28:42;;;;;;;5.95;3.85;;;;;;;12.63;22.15;100646.22;5094379;28;20036;-71
2022/03/08 14:31:34;;;;;;;4.63;3.60;;;;;;;12.42;22.03;100641.50;5094401;28;20040;-70
2022/03/08 14:34:13;;;;;;;4.05;3.22;;;;;;;12.57;21.85;100647.75;5092197;28;20052;-71
2022/03/08 14:36:41;;;;;;;5.00;3.40;;;;;;;12.59;21.59;100643.09;5094412;28;20138;-70
2022/03/08 14:39:38;;;;;;;4.10;3.25;;;;;;;12.03;22.63;100644.19;5094416;28;20385;-71
2022/03/08 14:42:10;;;;;;;4.63;3.57;;;;;;;12.00;23.04;100645.38;5093349;28;20047;-71
2022/03/08 14:44:50;;;;;;;4.63;3.40;;;;;;;12.07;22.57;100635.66;5094217;28;20040;-70
2022/03/08 14:47:25;;;;;;;5.13;3.50;;;;;;;12.07;22.68;100632.16;5094225;28;20036;-72
2022/03/08 14:49:55;;;;;;;5.50;3.63;;;;;;;11.94;22.98;100643.41;5094154;28;20040;-71
2022/03/08 14:52:29;;;;;;;6.63;3.60;;;;;;;11.74;22.95;100628.75;5093611;28;20048;-71
2022/03/08 14:54:57;;;;;;;4.90;3.47;;;;;;;11.64;22.81;100639.59;5093652;28;20039;-72
2022/03/08 14:57:23;;;;;;;6.13;3.60;;;;;;;11.61;23.07;100630.13;5094089;28;20050;-71
2022/03/08 14:59:50;;;;;;;3.90;2.95;;;;;;;11.47;23.47;100635.28;5094125;28;20366;-71
2022/03/08 15:02:16;;;;;;;5.68;3.70;;;;;;;11.47;23.28;100632.63;5092605;28;20361;-72
2022/03/08 15:04:42;;;;;;;5.57;3.95;;;;;;;11.35;23.03;100632.19;5093889;28;20036;-71
2022/03/08 15:07:08;;;;;;;4.60;3.20;;;;;;;11.40;23.32;100635.97;5093878;28;20059;-71
2022/03/08 15:09:33;;;;;;;4.22;3.30;;;;;;;11.23;23.56;100637.00;5093939;28;20047;-72
2022/03/08 15:11:59;;;;;;;5.68;3.63;;;;;;;11.21;24.14;100636.31;5075349;28;20043;-72
2022/03/08 15:14:25;;;;;;;6.38;3.53;;;;;;;11.23;24.30;100631.69;5093633;28;20075;-71
2022/03/08 15:16:51;;;;;;;4.68;3.40;;;;;;;11.23;23.72;100636.19;5093692;28;20148;-71
2022/03/08 15:19:16;;;;;;;5.75;3.90;;;;;;;11.13;23.89;100637.16;5093700;28;20044;-72
2022/03/08 15:21:46;;;;;;;4.85;3.25;;;;;;;11.10;25.13;100637.53;5093179;28;20028;-71
2022/03/08 15:24:12;;;;;;;4.97;3.85;;;;;;;11.14;24.64;100630.84;5093362;28;20448;-71
2022/03/08 15:26:38;;;;;;;6.97;3.47;;;;;;;11.18;24.17;100638.50;5093291;28;20043;-72
2022/03/08 15:29:05;;;;;;;5.43;3.38;;;;;;;11.14;23.50;100644.16;5093318;28;20500;-70
2022/03/08 15:31:31;;;;;;;3.70;3.23;;;;;;;11.16;23.71;100646.69;5093297;28;20066;-70
2022/03/08 15:33:57;;;;;;;6.20;3.63;;;;;;;10.98;23.59;100638.84;5093007;28;20036;-70
2022/03/08 15:36:23;;;;;;;4.50;3.42;;;;;;;10.99;23.41;100637.00;5093167;28;20405;-70
2022/03/08 15:38:53;;;;;;;5.50;3.95;;;;;;;10.97;23.44;100641.69;5093350;28;20050;-70
2022/03/08 15:41:21;;;;;;;5.32;3.83;;;;;;;10.91;23.77;100634.34;5091951;28;20035;-70
2022/03/08 15:43:48;;;;;;;6.10;4.20;;;;;;;10.73;23.46;100640.66;5092722;28;20044;-69
2022/03/08 15:46:15;;;;;;;4.55;3.80;;;;;;;10.78;23.83;100642.84;5091874;28;20420;-72
2022/03/08 15:48:42;;;;;;;5.63;3.15;;;;;;;10.68;24.21;100640.31;5093125;28;20047;-69
2022/03/08 15:51:07;;;;;;;4.85;3.20;;;;;;;10.65;23.72;100638.00;5091688;28;20051;-71
2022/03/08 15:53:33;;;;;;;4.13;3.65;;;;;;;10.66;24.38;100634.31;5092522;28;20036;-71
2022/03/08 15:55:59;;;;;;;7.15;3.85;;;;;;;10.65;24.38;100635.31;5092956;28;20120;-70
2022/03/08 15:58:27;;;;;;;6.00;3.90;;;;;;;10.69;23.91;100635.81;5093025;28;20036;-70
2022/03/08 16:00:54;;;;;;;5.68;3.47;;;;;;;10.58;23.81;100629.00;5093009;28;20527;-70
2022/03/08 16:03:21;;;;;;;4.35;3.40;;;;;;;10.64;23.81;100623.00;5092472;28;20381;-71
2022/03/08 16:05:46;;;;;;;4.65;3.67;;;;;;;10.53;24.14;100634.78;5091972;28;20063;-70
2022/03/08 16:08:12;;;;;;;4.82;3.50;;;;;;;10.51;24.11;100638.63;5092797;28;20066;-70
2022/03/08 16:10:38;;;;;;;6.00;3.30;;;;;;;10.47;24.24;100627.47;5093316;28;20044;-70
2022/03/08 16:13:04;;;;;;;5.55;4.10;;;;;;;10.50;24.03;100626.31;5092487;28;20088;-70
2022/03/08 16:15:30;;;;;;;8.35;3.20;;;;;;;10.42;24.12;100624.44;5092617;28;20435;-70
2022/03/08 16:17:56;;;;;;;7.00;3.47;;;;;;;10.46;24.23;100630.28;5092517;28;20036;-71
2022/03/08 16:20:22;;;;;;;5.38;3.33;;;;;;;10.40;24.37;100633.59;5092488;28;20040;-70
2022/03/08 16:22:47;;;;;;;4.68;3.22;;;;;;;10.44;24.62;100633.13;5091845;28;20458;-70
2022/03/08 16:25:13;;;;;;;5.00;3.80;;;;;;;10.35;24.33;100636.75;5092432;28;20032;-70
2022/03/08 16:27:39;;;;;;;6.72;3.30;;;;;;;10.25;24.55;100634.22;5092467;28;20043;-71
2022/03/08 16:30:07;;;;;;;4.90;3.63;;;;;;;10.33;24.59;100644.06;5092572;28;20043;-71
2022/03/08 16:32:32;;;;;;;4.93;3.20;;;;;;;10.29;24.65;100643.53;5091878;28;20036;-70
2022/03/08 16:34:58;;;;;;;5.45;3.63;;;;;;;10.17;25.17;100644.84;5092031;28;20123;-70
2022/03/08 16:37:24;;;;;;;4.97;3.45;;;;;;;10.19;25.11;100644.66;5092309;28;20040;-71
2022/03/08 16:39:49;;;;;;;7.63;3.97;;;;;;;10.19;24.70;100644.66;5092301;28;20053;-71
2022/03/08 16:42:15;;;;;;;5.40;3.55;;;;;;;10.14;24.81;100646.97;5091891;28;20055;-71
2022/03/08 16:44:42;;;;;;;4.35;3.45;;;;;;;10.06;25.18;100648.59;5092165;28;20470;-71
2022/03/08 16:47:08;;;;;;;8.68;4.10;;;;;;;10.00;25.11;100651.91;5092287;28;20059;-72
2022/03/08 16:49:34;;;;;;;4.70;3.30;;;;;;;10.05;24.68;100646.09;5092090;28;20043;-72
2022/03/08 16:52:00;;;;;;;5.30;3.17;;;;;;;9.90;25.01;100645.84;5091596;28;20398;-71
2022/03/08 16:54:26;;;;;;;8.70;5.05;;;;;;;9.81;25.81;100648.66;5091912;28;20062;-71